PWSweather.com
Personal Weather Stations
Station Observations
BREEJEDURP
'sGravenzande, WestlandNL

'sGravenzandeWestlandNL

Lat: 52.00095260000001, Lon: 4.174256600000035

Elevation: 3

Station Type: Davis Vantage Pro2 Plus

Latest ConditionsUpdated 12:09:00 PM GMT+01:01 Saturday, Jul 21, 2018
Currently Today's Max Today's Min Today's Average
Temperature 72.1°F22.3°C 72.3°F22.4°C 65.3°F18.5°C 67.9°F19.9°C
Dew Point 62.2°F16.8°C 64.3°F17.9°C 61.8°F16.6°C 62.8°F17.1°C
Winds 8.0 mph NNE12.9 kmh NNE 10.0 mph -16.1 kmh - - 5.9 mph 9.5 kmh
Wind Gusts 13.0 mph20.9 kmh 16.0 mph25.7 kmh - -
Humidity 71% 89% 71% 84%
Pressure 29.90 in1012.5 mb 29.90 in1012.5 mb 29.86 in1011.2 mb -
Hour Temp Dew Point Humidity Winds Wind Gusts Pressure Precip Precip Rate Daily Precip Total
12:09 PM 72.1°F22.3°C 62.2°F16.8°C 71% 8.0 mph NNE12.9 kmh NNE 13.0 mph20.9 kmh 29.90 in1012.5 mb 0.00 in0.0 mm 0.00 in0.0 mm 0.00 in0.0 mm
12:05 PM 72.3°F22.4°C 64.3°F17.9°C 76% 8.0 mph NNE12.9 kmh NNE 12.0 mph19.3 kmh 29.90 in1012.5 mb 0.00 in0.0 mm 0.00 in0.0 mm 0.00 in0.0 mm
11:59 AM 71.6°F22.0°C 63.6°F17.6°C 76% 8.0 mph NNW12.9 kmh NNW 13.0 mph20.9 kmh 29.90 in1012.5 mb 0.00 in0.0 mm 0.00 in0.0 mm 0.00 in0.0 mm
10:09 AM 70.9°F21.6°C 63.7°F17.6°C 78% 10.0 mph NW16.1 kmh NW 16.0 mph25.7 kmh 29.88 in1011.9 mb 0.00 in0.0 mm 0.00 in0.0 mm 0.00 in0.0 mm
10:04 AM 71.1°F21.7°C 64.2°F17.9°C 79% 7.0 mph NNE11.3 kmh NNE 13.0 mph20.9 kmh 29.88 in1011.9 mb 0.00 in0.0 mm 0.00 in0.0 mm 0.00 in0.0 mm
09:59 AM 70.5°F21.4°C 63.3°F17.4°C 78% 9.0 mph N14.5 kmh N 15.0 mph24.1 kmh 29.88 in1011.9 mb 0.00 in0.0 mm 0.00 in0.0 mm 0.00 in0.0 mm
08:09 AM 67.8°F19.9°C 62.8°F17.1°C 84% 10.0 mph NNW16.1 kmh NNW 13.0 mph20.9 kmh 29.88 in1011.9 mb 0.00 in0.0 mm 0.00 in0.0 mm 0.00 in0.0 mm
08:04 AM 67.8°F19.9°C 62.8°F17.1°C 84% 9.0 mph NW14.5 kmh NW 16.0 mph25.7 kmh 29.88 in1011.9 mb 0.00 in0.0 mm 0.00 in0.0 mm 0.00 in0.0 mm
07:59 AM 67.8°F19.9°C 63.1°F17.3°C 85% 7.0 mph N11.3 kmh N 16.0 mph25.7 kmh 29.88 in1011.9 mb 0.00 in0.0 mm 0.00 in0.0 mm 0.00 in0.0 mm
06:09 AM 65.8°F18.8°C 62.5°F16.9°C 89% 5.0 mph NNW8.0 kmh NNW 9.0 mph14.5 kmh 29.87 in1011.5 mb 0.00 in0.0 mm 0.00 in0.0 mm 0.00 in0.0 mm
06:04 AM 65.7°F18.7°C 62.3°F16.8°C 89% 4.0 mph NNW6.4 kmh NNW 6.0 mph9.7 kmh 29.87 in1011.5 mb 0.00 in0.0 mm 0.00 in0.0 mm 0.00 in0.0 mm
05:59 AM 65.7°F18.7°C 62.3°F16.8°C 89% 5.0 mph N8.0 kmh N 10.0 mph16.1 kmh 29.86 in1011.2 mb 0.00 in0.0 mm 0.00 in0.0 mm 0.00 in0.0 mm
04:09 AM 65.3°F18.5°C 62.0°F16.7°C 89% 3.0 mph NNW4.8 kmh NNW 5.0 mph8.0 kmh 29.86 in1011.2 mb 0.00 in0.0 mm 0.00 in0.0 mm 0.00 in0.0 mm
04:04 AM 65.5°F18.6°C 62.1°F16.7°C 89% 4.0 mph NNE6.4 kmh NNE 9.0 mph14.5 kmh 29.86 in1011.2 mb 0.00 in0.0 mm 0.00 in0.0 mm 0.00 in0.0 mm
03:59 AM 65.5°F18.6°C 61.8°F16.6°C 88% 5.0 mph NNE8.0 kmh NNE 10.0 mph16.1 kmh 29.86 in1011.2 mb 0.00 in0.0 mm 0.00 in0.0 mm 0.00 in0.0 mm
02:09 AM 66.4°F19.1°C 63.0°F17.2°C 89% 4.0 mph NNW6.4 kmh NNW 8.0 mph12.9 kmh 29.88 in1011.9 mb 0.00 in0.0 mm 0.00 in0.0 mm 0.00 in0.0 mm
02:04 AM 66.4°F19.1°C 62.7°F17.1°C 88% 3.0 mph N4.8 kmh N 5.0 mph8.0 kmh 29.88 in1011.9 mb 0.00 in0.0 mm 0.00 in0.0 mm 0.00 in0.0 mm
01:59 AM 66.4°F19.1°C 62.7°F17.1°C 88% 4.0 mph NNW6.4 kmh NNW 6.0 mph9.7 kmh 29.88 in1011.9 mb 0.00 in0.0 mm 0.00 in0.0 mm 0.00 in0.0 mm
12:09 AM 66.7°F19.3°C 62.7°F17.1°C 87% 3.0 mph NNE4.8 kmh NNE 4.0 mph6.4 kmh 29.89 in1012.2 mb 0.00 in0.0 mm 0.00 in0.0 mm 0.00 in0.0 mm
12:04 AM 66.7°F19.3°C 62.7°F17.1°C 87% 2.0 mph N3.2 kmh N 4.0 mph6.4 kmh 29.89 in1012.2 mb 0.00 in0.0 mm 0.00 in0.0 mm 0.00 in0.0 mm